Time;durP1;ratioP1;P1;durP2;ratioP2;P2;SDS_P1;SDS_P2;PMS_P1;PMS_P2;Temp;Humidity;BMP_temperature;BMP_pressure;BME280_temperature;BME280_humidity;BME280_pressure;Samples;Min_cycle;Max_cycle;Signal;HPM_P1;HPM_P2
2021/03/04 00:02:23;;;;;;;17.07;14.53;;;16.20;87.90;;;;;;5077603;28;20450;-39
2021/03/04 00:04:56;;;;;;;15.63;14.03;;;16.30;88.80;;;;;;5073714;28;20964;-38
2021/03/04 00:07:26;;;;;;;13.80;12.40;;;16.20;89.80;;;;;;5070533;28;20500;-40
2021/03/04 00:09:56;;;;;;;17.17;14.83;;;16.10;89.10;;;;;;5062293;28;20568;-37
2021/03/04 00:12:26;;;;;;;16.50;14.80;;;16.20;85.20;;;;;;5073108;28;20534;-37
2021/03/04 00:14:56;;;;;;;15.60;13.80;;;16.10;86.50;;;;;;5067490;28;21021;-37
2021/03/04 00:17:44;;;;;;;16.67;14.27;;;15.90;86.60;;;;;;5062473;28;20480;-39
2021/03/04 00:20:18;;;;;;;16.20;14.57;;;16.00;84.10;;;;;;5067363;28;20530;-39
2021/03/04 00:22:48;;;;;;;17.43;14.50;;;16.00;84.50;;;;;;5072791;28;20552;-39
2021/03/04 00:25:20;;;;;;;16.60;14.00;;;15.90;83.50;;;;;;5069545;28;20462;-39
2021/03/04 00:27:51;;;;;;;20.30;14.03;;;15.80;87.20;;;;;;5068831;28;20443;-39
2021/03/04 00:30:23;;;;;;;17.63;13.83;;;15.70;88.70;;;;;;5063172;28;20446;-39
2021/03/04 00:32:53;;;;;;;20.30;14.80;;;15.70;89.80;;;;;;5067569;28;20581;-39
2021/03/04 00:35:25;;;;;;;16.93;15.13;;;15.60;89.50;;;;;;5082865;28;20807;-38
2021/03/04 00:37:55;;;;;;;17.10;14.30;;;15.70;88.50;;;;;;5079934;28;20450;-39
2021/03/04 00:40:25;;;;;;;18.73;14.50;;;15.70;87.40;;;;;;5068506;28;20446;-39
2021/03/04 00:42:55;;;;;;;15.00;13.40;;;15.70;88.30;;;;;;5079894;28;20507;-38
2021/03/04 00:45:26;;;;;;;17.83;12.40;;;15.70;85.70;;;;;;5066778;28;20450;-39
2021/03/04 00:48:12;;;;;;;15.70;13.43;;;15.70;85.50;;;;;;5064188;28;20567;-40
2021/03/04 00:50:44;;;;;;;19.40;14.80;;;15.70;86.60;;;;;;5077587;28;20443;-38
2021/03/04 00:53:14;;;;;;;17.33;15.07;;;15.50;86.30;;;;;;5072241;28;20493;-38
2021/03/04 00:55:44;;;;;;;15.40;13.70;;;15.40;88.50;;;;;;5082733;28;20458;-38
2021/03/04 00:58:14;;;;;;;16.50;14.23;;;15.40;89.50;;;;;;5073008;28;20441;-39
2021/03/04 01:00:45;;;;;;;19.23;13.53;;;15.30;90.10;;;;;;5084437;28;20456;-39
2021/03/04 01:03:15;;;;;;;14.30;12.90;;;15.20;91.30;;;;;;5086033;28;20832;-38
2021/03/04 01:05:46;;;;;;;14.67;13.17;;;15.10;90.70;;;;;;5084569;28;20458;-38
2021/03/04 01:08:17;;;;;;;14.13;12.40;;;15.00;91.30;;;;;;5078304;28;20452;-39
2021/03/04 01:10:47;;;;;;;15.50;11.80;;;14.90;91.70;;;;;;5073608;28;20462;-38
2021/03/04 01:13:17;;;;;;;13.23;11.83;;;14.80;89.30;;;;;;5071810;28;20543;-38
2021/03/04 01:15:48;;;;;;;15.00;11.47;;;14.80;87.50;;;;;;5073807;28;20465;-38
2021/03/04 01:18:28;;;;;;;15.67;11.07;;;14.70;88.80;;;;;;5078794;28;20453;-38
2021/03/04 01:21:00;;;;;;;15.63;11.20;;;14.70;86.20;;;;;;5083585;28;20456;-38
2021/03/04 01:23:30;;;;;;;13.73;11.60;;;14.60;86.40;;;;;;5076437;28;20464;-38
2021/03/04 01:26:01;;;;;;;12.30;11.07;;;14.50;87.10;;;;;;5080560;28;20464;-39
2021/03/04 01:28:31;;;;;;;12.93;11.73;;;14.40;87.30;;;;;;5080368;28;20451;-37
2021/03/04 01:31:01;;;;;;;16.70;13.10;;;14.30;89.00;;;;;;5075534;28;20459;-39
2021/03/04 01:33:31;;;;;;;16.73;13.37;;;14.30;89.20;;;;;;5069074;28;20490;-39
2021/03/04 01:36:03;;;;;;;18.03;12.43;;;14.20;90.20;;;;;;5084638;28;20929;-39
2021/03/04 01:38:33;;;;;;;15.17;13.57;;;14.10;90.50;;;;;;5077208;28;20502;-39
2021/03/04 01:41:03;;;;;;;16.07;13.50;;;14.00;89.40;;;;;;5084233;28;20558;-39
2021/03/04 01:43:33;;;;;;;16.20;14.00;;;14.00;90.20;;;;;;5075575;28;20477;-39
2021/03/04 01:46:03;;;;;;;15.27;13.50;;;13.90;89.90;;;;;;5076993;28;20525;-39
2021/03/04 01:48:50;;;;;;;16.13;13.87;;;13.80;90.10;;;;;;5077721;28;20514;-38
2021/03/04 01:51:22;;;;;;;15.47;13.87;;;13.70;90.40;;;;;;5084871;28;20474;-39
2021/03/04 01:53:52;;;;;;;20.90;16.50;;;13.60;90.70;;;;;;5081425;28;20482;-39
2021/03/04 01:56:23;;;;;;;21.33;16.40;;;13.50;91.10;;;;;;5078815;28;20464;-39
2021/03/04 01:58:53;;;;;;;19.40;17.07;;;13.50;91.80;;;;;;5085238;28;20451;-39
2021/03/04 02:01:23;;;;;;;19.23;16.27;;;13.40;92.30;;;;;;5077972;28;20569;-39
2021/03/04 02:03:53;;;;;;;19.07;17.17;;;13.30;92.60;;;;;;5078264;28;20451;-39
2021/03/04 02:06:31;;;;;;;20.57;18.27;;;13.10;93.70;;;;;;5068531;28;20447;-39
2021/03/04 02:09:04;;;;;;;20.10;18.03;;;12.90;94.40;;;;;;5077696;28;20444;-39
2021/03/04 02:11:40;;;;;;;20.60;17.50;;;12.70;95.30;;;;;;5070981;28;20455;-38
2021/03/04 02:14:14;;;;;;;18.57;16.77;;;12.70;95.60;;;;;;5079459;28;20545;-40
2021/03/04 02:17:08;;;;;;;20.80;18.60;;;12.60;96.40;;;;;;5067261;28;20501;-40
2021/03/04 02:19:51;;;;;;;24.40;19.97;;;12.50;97.60;;;;;;5077821;28;20579;-41
2021/03/04 02:22:46;;;;;;;23.70;19.93;;;12.40;97.70;;;;;;5078791;28;20494;-40
2021/03/04 02:25:23;;;;;;;24.60;20.23;;;12.30;98.40;;;;;;5078876;28;20446;-40
2021/03/04 02:27:55;;;;;;;22.60;19.43;;;12.40;98.80;;;;;;5065054;28;20452;-40
2021/03/04 02:30:29;;;;;;;21.27;19.00;;;12.30;99.30;;;;;;5066207;28;20460;-40
2021/03/04 02:33:05;;;;;;;25.80;20.77;;;12.10;99.90;;;;;;5065213;28;20727;-39
2021/03/04 02:35:37;;;;;;;23.90;21.50;;;11.90;99.90;;;;;;5071367;28;20538;-41
2021/03/04 02:38:10;;;;;;;24.10;20.90;;;11.90;99.90;;;;;;5075876;28;20471;-41
2021/03/04 02:40:42;;;;;;;25.67;22.90;;;11.90;99.90;;;;;;5077814;28;20798;-39
2021/03/04 02:43:18;;;;;;;25.00;22.50;;;11.90;99.90;;;;;;5071437;28;20450;-39
2021/03/04 02:45:48;;;;;;;24.73;21.97;;;11.80;99.90;;;;;;5074787;28;20454;-39
2021/03/04 02:48:21;;;;;;;26.27;23.13;;;11.80;99.90;;;;;;5068252;28;20512;-40
2021/03/04 02:50:53;;;;;;;25.90;23.20;;;11.80;99.90;;;;;;5079908;28;20488;-40
2021/03/04 02:53:23;;;;;;;28.97;25.07;;;11.70;99.90;;;;;;5065498;28;20513;-39
2021/03/04 02:55:56;;;;;;;28.73;25.63;;;11.60;99.90;;;;;;5064488;28;20498;-40
2021/03/04 02:58:28;;;;;;;28.70;24.20;;;11.60;99.90;;;;;;5069373;28;20922;-40
2021/03/04 03:00:59;;;;;;;29.40;25.90;;;11.50;99.90;;;;;;5076005;28;20455;-39
2021/03/04 03:03:31;;;;;;;30.70;27.10;;;11.40;99.90;;;;;;5068400;28;20454;-39
2021/03/04 03:06:03;;;;;;;30.90;27.30;;;11.40;99.90;;;;;;5066471;28;20456;-39
2021/03/04 03:08:33;;;;;;;29.25;24.83;;;11.20;99.90;;;;;;5084637;28;20445;-40
2021/03/04 03:11:04;;;;;;;29.37;24.97;;;11.20;99.90;;;;;;5082920;28;20263;-40
2021/03/04 03:13:35;;;;;;;30.43;26.57;;;11.10;99.90;;;;;;5084547;28;20641;-39
2021/03/04 03:18:57;;;;;;;29.47;26.47;;;11.00;99.90;;;;;;5064211;28;20454;-39
2021/03/04 03:21:27;;;;;;;29.20;26.10;;;10.90;99.90;;;;;;5072205;28;20462;-40
2021/03/04 03:23:57;;;;;;;28.13;24.87;;;10.90;99.90;;;;;;5068374;28;20439;-40
2021/03/04 03:26:27;;;;;;;31.47;25.97;;;10.80;99.90;;;;;;5077419;28;20942;-39
2021/03/04 03:28:59;;;;;;;30.33;25.47;;;10.70;99.90;;;;;;5068696;28;20454;-39
2021/03/04 03:31:30;;;;;;;31.30;25.47;;;10.60;99.90;;;;;;5061984;28;20462;-39
2021/03/04 03:34:01;;;;;;;31.70;25.42;;;10.50;99.90;;;;;;5065959;28;20455;-39
2021/03/04 03:36:32;;;;;;;30.13;24.98;;;10.30;99.90;;;;;;5077558;28;20206;-39
2021/03/04 03:39:04;;;;;;;31.98;26.25;;;10.20;99.90;;;;;;5082326;28;20281;-38
2021/03/04 03:41:36;;;;;;;29.92;25.20;;;10.00;99.90;;;;;;5070758;28;20255;-39
2021/03/04 03:44:09;;;;;;;28.23;24.80;;;9.90;99.90;;;;;;5072668;28;20209;-38
2021/03/04 03:46:41;;;;;;;32.63;28.13;;;9.80;99.90;;;;;;5067717;28;20449;-39
2021/03/04 03:49:13;;;;;;;32.20;27.50;;;9.70;99.90;;;;;;5074236;28;20484;-39
2021/03/04 03:51:43;;;;;;;31.20;26.85;;;9.60;99.90;;;;;;5063898;28;20200;-39
2021/03/04 03:54:15;;;;;;;29.60;26.42;;;9.50;99.90;;;;;;5073317;28;20187;-39
2021/03/04 03:56:45;;;;;;;30.70;27.38;;;9.40;99.90;;;;;;5063819;28;20195;-39
2021/03/04 03:59:17;;;;;;;32.58;27.90;;;9.40;99.90;;;;;;5063966;28;20200;-38
2021/03/04 04:01:48;;;;;;;31.65;28.25;;;9.30;99.90;;;;;;5080953;28;20207;-39
2021/03/04 04:04:19;;;;;;;34.92;29.88;;;9.30;99.90;;;;;;5081937;28;20204;-39
2021/03/04 04:06:51;;;;;;;31.70;28.27;;;9.30;99.90;;;;;;5063465;28;20623;-39
2021/03/04 04:09:22;;;;;;;32.40;27.73;;;9.30;99.90;;;;;;5073739;28;20211;-39
2021/03/04 04:11:52;;;;;;;33.53;28.95;;;9.20;99.90;;;;;;5067086;28;20572;-39
2021/03/04 04:14:23;;;;;;;33.55;28.45;;;9.20;99.90;;;;;;5079220;28;20199;-40
2021/03/04 04:16:55;;;;;;;36.30;29.15;;;9.10;99.90;;;;;;5073022;28;20562;-40
2021/03/04 04:19:26;;;;;;;30.80;27.55;;;9.00;99.90;;;;;;5066131;28;20202;-39
2021/03/04 04:21:57;;;;;;;34.92;30.20;;;9.00;99.90;;;;;;5070072;28;20200;-39
2021/03/04 04:24:27;;;;;;;32.95;29.48;;;9.00;99.90;;;;;;5077540;28;20201;-40
2021/03/04 04:26:59;;;;;;;39.45;35.25;;;9.00;99.90;;;;;;5065613;28;20260;-39
2021/03/04 04:29:34;;;;;;;35.95;32.15;;;9.10;99.90;;;;;;5069186;28;20680;-39
2021/03/04 04:32:10;;;;;;;36.45;32.38;;;8.90;99.90;;;;;;5069537;28;20321;-39
2021/03/04 04:34:59;;;;;;;37.15;33.42;;;8.70;99.90;;;;;;5072493;28;20286;-39
2021/03/04 04:37:29;;;;;;;40.03;34.20;;;8.70;99.90;;;;;;5066953;28;20220;-40
2021/03/04 04:40:02;;;;;;;36.28;32.55;;;8.70;99.90;;;;;;5070346;28;20679;-39
2021/03/04 04:42:36;;;;;;;39.47;33.70;;;8.50;99.90;;;;;;5064207;28;20210;-39
2021/03/04 04:45:11;;;;;;;39.92;32.63;;;8.50;99.90;;;;;;5067182;28;20270;-39
2021/03/04 04:47:41;;;;;;;38.67;33.78;;;8.40;99.90;;;;;;5075162;28;20226;-39
2021/03/04 04:50:12;;;;;;;36.78;33.08;;;8.40;99.90;;;;;;5066952;28;20233;-40
2021/03/04 04:52:42;;;;;;;39.38;35.33;;;8.30;99.90;;;;;;5064283;28;20329;-39
2021/03/04 04:55:12;;;;;;;38.80;34.80;;;8.20;99.90;;;;;;5074367;28;20205;-40
2021/03/04 04:57:42;;;;;;;37.08;33.28;;;8.20;99.90;;;;;;5080484;28;20224;-39
2021/03/04 05:00:14;;;;;;;39.50;35.47;;;8.10;99.90;;;;;;5073058;28;20209;-39
2021/03/04 05:02:44;;;;;;;40.08;35.78;;;8.10;99.90;;;;;;5063628;28;20295;-39
2021/03/04 05:05:14;;;;;;;41.97;37.83;;;8.00;99.90;;;;;;5074485;28;20256;-37
2021/03/04 05:07:47;;;;;;;40.40;36.00;;;7.90;99.90;;;;;;5081216;28;20209;-37
2021/03/04 05:10:19;;;;;;;37.95;33.17;;;8.00;99.90;;;;;;5081291;28;20204;-39
2021/03/04 05:12:56;;;;;;;36.35;32.47;;;7.90;99.90;;;;;;5073665;28;20290;-38
2021/03/04 05:15:27;;;;;;;37.40;32.67;;;7.90;99.90;;;;;;5067788;28;20304;-38
2021/03/04 05:17:58;;;;;;;39.42;33.80;;;7.80;99.90;;;;;;5065502;28;20238;-38
2021/03/04 05:20:28;;;;;;;35.58;31.75;;;7.80;99.90;;;;;;5070364;28;20228;-39
2021/03/04 05:22:59;;;;;;;37.45;33.50;;;7.70;99.90;;;;;;5067277;28;20251;-39
2021/03/04 05:25:30;;;;;;;37.22;33.20;;;7.60;99.90;;;;;;5062905;28;20198;-38
2021/03/04 05:28:00;;;;;;;40.17;35.15;;;7.60;99.90;;;;;;5069281;28;20198;-39
2021/03/04 05:30:31;;;;;;;39.83;35.70;;;7.50;99.90;;;;;;5072591;28;20201;-38
2021/03/04 05:33:01;;;;;;;43.25;38.55;;;7.50;99.90;;;;;;5076108;28;20247;-38
2021/03/04 05:35:31;;;;;;;41.92;37.05;;;7.50;99.90;;;;;;5073026;28;20219;-38
2021/03/04 05:38:01;;;;;;;42.55;38.38;;;7.50;99.90;;;;;;5068757;28;20214;-39
2021/03/04 05:40:32;;;;;;;40.70;36.50;;;7.40;99.90;;;;;;5076009;28;20205;-38
2021/03/04 05:43:04;;;;;;;42.65;38.08;;;7.40;99.90;;;;;;5059189;28;20263;-39
2021/03/04 05:45:36;;;;;;;41.85;37.17;;;7.30;99.90;;;;;;5071624;28;20977;-39
2021/03/04 05:48:08;;;;;;;47.50;38.10;;;7.30;99.90;;;;;;5078390;28;20213;-39
2021/03/04 05:50:46;;;;;;;40.15;35.90;;;7.20;99.90;;;;;;5072578;28;20214;-38
2021/03/04 05:53:19;;;;;;;43.03;37.13;;;7.20;99.90;;;;;;5073492;28;20599;-39
2021/03/04 05:55:49;;;;;;;42.38;37.95;;;7.10;99.90;;;;;;5072657;28;20222;-38
2021/03/04 05:58:20;;;;;;;44.10;38.63;;;7.10;99.90;;;;;;5083158;28;20197;-38
2021/03/04 06:00:57;;;;;;;38.58;31.30;;;7.20;99.90;;;;;;5073312;28;20201;-38
2021/03/04 06:03:28;;;;;;;39.25;32.90;;;7.10;99.90;;;;;;5083036;28;20221;-39
2021/03/04 06:05:58;;;;;;;36.03;27.83;;;7.10;99.90;;;;;;5079605;28;20263;-39
2021/03/04 06:08:28;;;;;;;31.50;26.15;;;7.10;99.90;;;;;;5084094;28;20251;-39
2021/03/04 06:10:58;;;;;;;21.70;19.38;;;7.00;99.90;;;;;;5085314;28;20589;-40
2021/03/04 06:13:29;;;;;;;23.08;17.65;;;7.00;99.90;;;;;;5082462;28;20241;-39
2021/03/04 06:16:02;;;;;;;23.95;16.58;;;7.00;99.90;;;;;;5078744;28;20205;-37
2021/03/04 06:18:43;;;;;;;16.75;13.85;;;7.00;99.90;;;;;;5084805;28;20220;-37
2021/03/04 06:21:24;;;;;;;19.45;12.52;;;6.90;99.90;;;;;;5076807;28;20290;-38
2021/03/04 06:23:55;;;;;;;13.50;11.05;;;6.90;99.90;;;;;;5078011;28;20205;-37
2021/03/04 06:26:37;;;;;;;11.80;8.60;;;6.90;99.90;;;;;;5076552;28;20276;-39
2021/03/04 06:29:15;;;;;;;12.55;9.02;;;6.90;99.90;;;;;;5084536;28;20219;-38
2021/03/04 06:31:58;;;;;;;12.75;8.55;;;6.90;99.90;;;;;;5083805;28;20269;-38
2021/03/04 06:34:29;;;;;;;14.30;7.65;;;6.80;99.90;;;;;;5078658;28;20214;-39
2021/03/04 06:37:04;;;;;;;10.30;7.40;;;6.70;99.90;;;;;;5084590;28;20259;-39
2021/03/04 06:39:44;;;;;;;11.50;6.90;;;6.70;99.90;;;;;;5084384;28;20330;-38
2021/03/04 06:42:15;;;;;;;10.02;6.65;;;6.70;99.90;;;;;;5083948;28;20201;-39
2021/03/04 06:44:46;;;;;;;11.07;7.38;;;6.70;99.90;;;;;;5078263;28;20217;-39
2021/03/04 06:47:23;;;;;;;9.50;6.45;;;6.70;99.90;;;;;;5084197;28;20205;-39
2021/03/04 06:49:55;;;;;;;8.05;5.25;;;6.60;99.90;;;;;;5084166;28;20208;-38
2021/03/04 06:52:41;;;;;;;8.25;6.40;;;6.60;99.90;;;;;;5067915;28;20232;-39
2021/03/04 06:55:12;;;;;;;8.52;6.10;;;6.60;99.90;;;;;;5082129;28;20231;-39
2021/03/04 06:57:43;;;;;;;12.50;7.65;;;6.50;99.90;;;;;;5084362;28;20193;-37
2021/03/04 07:00:21;;;;;;;10.60;6.95;;;6.60;99.90;;;;;;5081073;28;20209;-38
2021/03/04 07:02:56;;;;;;;9.77;6.25;;;6.50;99.90;;;;;;5084587;28;20245;-38
2021/03/04 07:05:26;;;;;;;10.63;6.07;;;6.40;99.90;;;;;;5073863;28;20197;-38
2021/03/04 07:07:58;;;;;;;10.40;6.80;;;6.40;99.90;;;;;;5078133;28;20205;-38
2021/03/04 07:10:29;;;;;;;12.68;7.32;;;6.40;99.90;;;;;;5082250;28;20205;-38
2021/03/04 07:13:00;;;;;;;9.95;6.43;;;6.40;99.90;;;;;;5083975;28;20670;-39
2021/03/04 07:15:31;;;;;;;10.95;6.75;;;6.30;99.90;;;;;;5075076;28;20254;-38
2021/03/04 07:18:03;;;;;;;10.27;7.28;;;6.20;99.90;;;;;;5077684;28;20238;-38
2021/03/04 07:20:34;;;;;;;8.82;7.13;;;6.20;99.90;;;;;;5082177;28;20193;-38
2021/03/04 07:23:11;;;;;;;13.25;7.43;;;6.10;99.90;;;;;;5083272;28;20210;-39
2021/03/04 07:25:41;;;;;;;8.07;6.05;;;6.00;99.90;;;;;;5075567;28;20213;-39
2021/03/04 07:28:12;;;;;;;7.35;5.85;;;6.00;99.90;;;;;;5080142;28;20209;-39
2021/03/04 07:30:43;;;;;;;7.93;5.50;;;5.90;99.90;;;;;;5066912;28;20197;-38
2021/03/04 07:33:14;;;;;;;11.57;6.05;;;5.80;99.90;;;;;;5080841;28;20217;-38
2021/03/04 07:35:48;;;;;;;9.80;6.95;;;5.80;99.90;;;;;;5076722;28;20267;-38
2021/03/04 07:38:28;;;;;;;9.20;5.97;;;5.80;99.90;;;;;;5082916;28;20216;-39
2021/03/04 07:41:03;;;;;;;9.50;5.50;;;5.80;99.90;;;;;;5083168;28;20204;-39
2021/03/04 07:43:47;;;;;;;12.30;5.70;;;5.80;99.90;;;;;;5074074;28;20204;-39
2021/03/04 07:46:29;;;;;;;11.43;6.35;;;5.80;99.90;;;;;;5077778;28;20209;-39
2021/03/04 07:49:00;;;;;;;8.35;5.88;;;5.70;99.90;;;;;;5083460;28;20213;-40
2021/03/04 07:51:41;;;;;;;8.98;5.80;;;5.70;99.90;;;;;;5074601;28;20247;-38
2021/03/04 07:54:11;;;;;;;8.75;6.60;;;5.60;99.90;;;;;;5075248;28;20233;-39
2021/03/04 07:56:42;;;;;;;8.02;6.30;;;5.60;99.90;;;;;;5074510;28;20205;-38
2021/03/04 07:59:14;;;;;;;12.13;6.45;;;5.60;99.90;;;;;;5077458;28;20202;-39
2021/03/04 08:01:45;;;;;;;12.80;6.78;;;5.60;99.90;;;;;;5079665;28;20201;-39
2021/03/04 08:04:24;;;;;;;7.00;5.85;;;5.60;99.90;;;;;;5071927;28;20260;-38
2021/03/04 08:06:55;;;;;;;9.93;6.55;;;5.50;99.90;;;;;;5082491;28;20284;-37
2021/03/04 08:09:32;;;;;;;9.20;6.72;;;5.40;99.90;;;;;;5082871;28;20197;-39
2021/03/04 08:12:10;;;;;;;12.07;6.20;;;5.40;99.90;;;;;;5082864;28;20374;-39
2021/03/04 08:14:41;;;;;;;10.55;7.47;;;5.40;99.90;;;;;;5062691;28;20273;-38
2021/03/04 08:17:11;;;;;;;8.15;6.15;;;5.40;99.90;;;;;;5068763;28;20229;-38
2021/03/04 08:19:43;;;;;;;9.50;6.32;;;5.30;99.90;;;;;;5073111;28;20228;-38
2021/03/04 08:22:13;;;;;;;10.27;6.28;;;5.30;99.90;;;;;;5063748;28;20563;-38
2021/03/04 08:24:43;;;;;;;12.52;7.15;;;5.30;99.90;;;;;;5078901;28;20205;-38
2021/03/04 08:27:13;;;;;;;10.77;7.07;;;5.30;99.90;;;;;;5070759;28;20271;-38
2021/03/04 08:29:50;;;;;;;9.23;6.30;;;5.20;99.90;;;;;;5070445;28;20244;-37
2021/03/04 08:32:20;;;;;;;8.88;6.28;;;5.20;99.90;;;;;;5080032;28;20273;-38
2021/03/04 08:34:51;;;;;;;8.85;5.85;;;5.10;99.90;;;;;;5072997;28;20281;-38
2021/03/04 08:37:23;;;;;;;9.32;6.78;;;5.10;99.90;;;;;;5082133;28;20201;-37
2021/03/04 08:40:01;;;;;;;8.02;6.78;;;5.00;99.90;;;;;;5077409;28;20197;-38
2021/03/04 08:42:31;;;;;;;10.52;7.00;;;5.00;99.90;;;;;;5082461;28;20258;-38
2021/03/04 08:45:01;;;;;;;7.68;6.30;;;5.00;99.90;;;;;;5073369;28;20217;-38
2021/03/04 08:47:32;;;;;;;7.97;5.85;;;4.90;99.90;;;;;;5068800;28;20202;-38
2021/03/04 08:50:03;;;;;;;9.23;7.03;;;4.90;99.90;;;;;;5078548;28;20208;-39
2021/03/04 08:52:35;;;;;;;6.68;6.03;;;4.90;99.90;;;;;;5082005;28;20205;-38
2021/03/04 08:55:06;;;;;;;10.75;7.07;;;4.80;99.90;;;;;;5081074;28;20220;-38
2021/03/04 08:57:36;;;;;;;8.57;6.97;;;4.80;99.90;;;;;;5073136;28;20286;-38
2021/03/04 09:00:09;;;;;;;7.57;5.80;;;4.80;99.90;;;;;;5079439;28;20258;-38
2021/03/04 09:02:45;;;;;;;7.45;6.13;;;4.80;99.90;;;;;;5067478;28;20244;-38
2021/03/04 09:05:23;;;;;;;7.18;5.90;;;4.80;99.90;;;;;;5071558;28;20202;-39
2021/03/04 09:07:53;;;;;;;7.55;6.30;;;4.90;99.90;;;;;;5063019;28;20198;-37
2021/03/04 09:10:23;;;;;;;10.65;7.50;;;5.00;99.90;;;;;;5083023;28;20590;-38
2021/03/04 09:12:53;;;;;;;10.90;6.65;;;5.00;99.90;;;;;;5085780;28;20225;-38
2021/03/04 09:15:23;;;;;;;11.63;7.18;;;5.00;99.90;;;;;;5082629;28;20202;-38
2021/03/04 09:17:54;;;;;;;7.35;6.22;;;5.00;99.90;;;;;;5085288;28;20232;-39
2021/03/04 09:20:31;;;;;;;10.45;6.35;;;5.00;99.90;;;;;;5081822;28;20234;-38
2021/03/04 09:23:05;;;;;;;9.20;6.25;;;4.90;99.90;;;;;;5085380;28;20197;-37
2021/03/04 09:25:35;;;;;;;10.55;7.15;;;4.90;99.90;;;;;;5083683;28;20205;-38
2021/03/04 09:28:08;;;;;;;9.32;7.75;;;4.90;99.90;;;;;;5084825;28;20255;-38
2021/03/04 09:30:38;;;;;;;12.13;6.60;;;4.80;99.90;;;;;;5068334;28;20202;-39
2021/03/04 09:33:20;;;;;;;8.88;6.40;;;4.90;99.90;;;;;;5085602;28;20251;-38
2021/03/04 09:35:59;;;;;;;7.32;6.57;;;4.80;99.90;;;;;;5079138;28;20208;-38
2021/03/04 09:38:31;;;;;;;9.70;6.60;;;4.80;99.90;;;;;;5084936;28;20221;-38
2021/03/04 09:41:12;;;;;;;11.48;6.53;;;4.70;99.90;;;;;;5085513;28;20225;-37
2021/03/04 09:43:44;;;;;;;10.27;6.00;;;4.60;99.90;;;;;;5083274;28;20205;-38
2021/03/04 09:46:26;;;;;;;11.43;6.82;;;4.60;99.90;;;;;;5080850;28;20422;-38
2021/03/04 09:49:05;;;;;;;10.32;6.65;;;4.60;99.90;;;;;;5084878;28;20240;-38
2021/03/04 09:51:39;;;;;;;8.95;6.65;;;4.60;99.90;;;;;;5085065;28;20225;-38
2021/03/04 09:54:10;;;;;;;13.32;6.80;;;4.70;99.90;;;;;;5077695;28;20230;-38
2021/03/04 09:57:05;;;;;;;9.88;7.10;;;4.70;99.90;;;;;;5070312;28;20293;-38
2021/03/04 09:59:45;;;;;;;10.25;5.47;;;4.70;99.90;;;;;;5075647;28;20219;-38
2021/03/04 10:02:16;;;;;;;10.02;6.68;;;4.70;99.90;;;;;;5076055;28;20280;-38
2021/03/04 10:04:56;;;;;;;8.57;6.78;;;4.70;99.90;;;;;;5084179;28;20316;-38
2021/03/04 10:07:29;;;;;;;7.85;6.15;;;4.70;99.90;;;;;;5067266;28;20275;-39
2021/03/04 10:09:59;;;;;;;9.63;6.90;;;4.70;99.90;;;;;;5068868;28;20264;-39
2021/03/04 10:12:30;;;;;;;9.32;6.18;;;4.60;99.90;;;;;;5070827;28;20275;-38
2021/03/04 10:14:59;;;;;;;9.82;6.60;;;4.50;99.90;;;;;;5069721;28;20286;-38
2021/03/04 10:17:40;;;;;;;11.75;6.90;;;4.50;99.90;;;;;;5084567;28;20249;-37
2021/03/04 10:20:12;;;;;;;11.13;7.63;;;4.40;99.90;;;;;;5084384;28;20213;-37
2021/03/04 10:22:43;;;;;;;12.15;8.38;;;4.40;99.90;;;;;;5080790;28;20198;-37
2021/03/04 10:25:16;;;;;;;11.05;7.80;;;4.40;99.90;;;;;;5082685;28;20200;-37
2021/03/04 10:27:46;;;;;;;11.85;7.60;;;4.50;99.90;;;;;;5084532;28;20209;-38
2021/03/04 10:30:17;;;;;;;11.00;6.80;;;4.50;99.90;;;;;;5072679;28;20198;-37
2021/03/04 10:32:47;;;;;;;9.88;6.20;;;4.40;99.90;;;;;;5084993;28;20227;-37
2021/03/04 10:35:18;;;;;;;15.52;8.35;;;4.40;99.90;;;;;;5077576;28;20324;-37
2021/03/04 10:37:50;;;;;;;14.88;8.50;;;4.40;99.90;;;;;;5081191;28;20228;-37
2021/03/04 10:40:21;;;;;;;20.00;13.73;;;4.30;99.90;;;;;;5073800;28;20216;-38
2021/03/04 10:42:51;;;;;;;25.10;18.17;;;4.40;99.90;;;;;;5075069;28;20281;-37
2021/03/04 10:45:21;;;;;;;25.20;20.20;;;4.50;99.90;;;;;;5076627;28;20218;-36
2021/03/04 10:47:53;;;;;;;33.88;22.77;;;4.60;99.90;;;;;;5081018;28;20240;-37
2021/03/04 10:50:25;;;;;;;28.27;23.13;;;4.70;99.90;;;;;;5080019;28;20201;-37
2021/03/04 10:52:56;;;;;;;28.50;23.42;;;4.80;99.90;;;;;;5083833;28;20205;-37
2021/03/04 10:55:41;;;;;;;38.03;26.55;;;4.80;99.90;;;;;;5083301;28;20209;-37
2021/03/04 10:58:12;;;;;;;29.50;24.20;;;4.90;99.90;;;;;;5082165;28;20205;-37
2021/03/04 11:00:42;;;;;;;28.00;22.98;;;4.90;99.90;;;;;;5074509;28;20193;-37
2021/03/04 11:03:12;;;;;;;29.63;21.65;;;5.00;99.90;;;;;;5084343;28;20284;-37
2021/03/04 11:05:42;;;;;;;27.33;21.50;;;5.10;99.90;;;;;;5083628;28;20209;-37
2021/03/04 11:08:14;;;;;;;27.98;20.77;;;5.20;99.90;;;;;;5081354;28;20220;-38
2021/03/04 11:10:44;;;;;;;25.23;20.67;;;5.30;99.90;;;;;;5083401;28;20208;-37
2021/03/04 11:13:16;;;;;;;25.35;19.95;;;5.40;99.90;;;;;;5084095;28;20290;-38
2021/03/04 11:15:46;;;;;;;29.40;18.90;;;5.60;99.90;;;;;;5073050;28;20202;-36
2021/03/04 11:18:18;;;;;;;22.83;17.88;;;5.70;99.90;;;;;;5080274;28;20205;-37
2021/03/04 11:20:48;;;;;;;23.25;19.30;;;5.80;99.90;;;;;;5076552;28;20209;-37
2021/03/04 11:23:19;;;;;;;26.40;18.38;;;5.90;99.90;;;;;;5080858;28;20213;-37
2021/03/04 11:26:01;;;;;;;26.88;17.63;;;5.90;99.90;;;;;;5074701;28;20230;-37
2021/03/04 11:28:31;;;;;;;22.83;17.10;;;5.90;99.90;;;;;;5077132;28;20237;-37
2021/03/04 11:31:01;;;;;;;18.05;16.15;;;5.90;99.90;;;;;;5072299;28;20209;-36
2021/03/04 11:33:32;;;;;;;22.00;16.52;;;5.80;99.90;;;;;;5081902;28;20277;-37
2021/03/04 11:36:02;;;;;;;25.13;17.13;;;5.70;99.90;;;;;;5075255;28;20289;-37
2021/03/04 11:38:33;;;;;;;22.30;16.90;;;5.70;99.90;;;;;;5077085;28;20256;-37
2021/03/04 11:41:03;;;;;;;18.05;14.82;;;5.80;99.90;;;;;;5079272;28;20371;-37
2021/03/04 11:43:33;;;;;;;18.77;14.60;;;5.80;99.90;;;;;;5073434;28;20209;-37
2021/03/04 11:46:03;;;;;;;19.15;16.35;;;6.00;99.90;;;;;;5070913;28;20197;-37
2021/03/04 11:48:34;;;;;;;21.00;14.18;;;6.10;99.90;;;;;;5082085;28;20631;-38
2021/03/04 11:51:04;;;;;;;19.48;14.18;;;6.10;99.90;;;;;;5072990;28;20232;-38
2021/03/04 11:53:35;;;;;;;16.52;14.00;;;6.20;99.90;;;;;;5082437;28;20224;-37
2021/03/04 11:56:21;;;;;;;19.25;14.57;;;6.20;99.90;;;;;;5072549;28;20249;-37
2021/03/04 11:58:51;;;;;;;18.83;13.52;;;6.20;99.90;;;;;;5083040;28;20242;-37
2021/03/04 12:01:22;;;;;;;19.35;13.88;;;6.30;99.90;;;;;;5079070;28;20247;-37
2021/03/04 12:03:52;;;;;;;17.25;13.40;;;6.30;99.90;;;;;;5070608;28;20209;-37
2021/03/04 12:06:23;;;;;;;16.77;12.82;;;6.40;99.90;;;;;;5078166;28;20205;-37
2021/03/04 12:08:54;;;;;;;17.70;12.93;;;6.40;99.90;;;;;;5081074;28;20233;-37
2021/03/04 12:11:44;;;;;;;13.95;12.00;;;6.50;99.90;;;;;;5082736;28;20211;-37
2021/03/04 12:14:14;;;;;;;19.75;13.23;;;6.50;99.90;;;;;;5081497;28;20256;-37
2021/03/04 12:19:35;;;;;;;16.52;11.93;;;6.50;99.90;;;;;;5081342;28;20202;-38
2021/03/04 12:22:05;;;;;;;18.77;13.65;;;6.50;99.90;;;;;;5083237;28;20300;-37
2021/03/04 12:24:38;;;;;;;17.13;13.35;;;6.50;99.90;;;;;;5080425;28;20217;-36
2021/03/04 12:27:10;;;;;;;22.95;14.13;;;6.60;99.90;;;;;;5082868;28;20205;-36
2021/03/04 12:29:40;;;;;;;15.23;12.50;;;6.70;99.90;;;;;;5080252;28;20705;-37
2021/03/04 12:32:11;;;;;;;16.60;12.07;;;6.70;99.90;;;;;;5078350;28;20259;-37
2021/03/04 12:34:45;;;;;;;16.13;12.93;;;6.50;99.90;;;;;;5078029;28;20220;-38
2021/03/04 12:37:15;;;;;;;14.40;12.90;;;6.20;99.90;;;;;;5082879;28;20205;-37
2021/03/04 12:39:46;;;;;;;16.25;13.35;;;6.10;99.90;;;;;;5081691;28;20235;-37
2021/03/04 12:42:16;;;;;;;15.73;11.73;;;6.20;99.90;;;;;;5079291;28;20229;-37
2021/03/04 12:44:46;;;;;;;15.40;11.77;;;6.20;99.90;;;;;;5083229;28;20204;-37
2021/03/04 12:47:16;;;;;;;13.75;11.50;;;6.10;99.90;;;;;;5075580;28;20583;-36
2021/03/04 12:49:47;;;;;;;16.75;11.85;;;6.00;99.90;;;;;;5086673;28;20201;-37
2021/03/04 12:52:16;;;;;;;16.65;12.68;;;6.10;99.90;;;;;;5086437;28;20234;-37
2021/03/04 12:54:48;;;;;;;24.10;12.75;;;6.10;99.90;;;;;;5075980;28;21081;-37
2021/03/04 12:57:18;;;;;;;15.38;11.85;;;6.00;99.90;;;;;;5074721;28;20204;-37
2021/03/04 12:59:48;;;;;;;23.23;13.63;;;6.10;99.90;;;;;;5084484;28;20271;-37
2021/03/04 13:02:18;;;;;;;16.55;14.23;;;6.10;99.90;;;;;;5086638;28;20205;-37
2021/03/04 13:04:48;;;;;;;16.98;13.88;;;6.20;99.90;;;;;;5086706;28;20197;-37
2021/03/04 13:07:18;;;;;;;16.27;13.23;;;6.20;99.90;;;;;;5085913;28;20557;-38
2021/03/04 13:09:49;;;;;;;19.65;13.90;;;6.20;99.90;;;;;;5086026;28;20206;-37
2021/03/04 13:12:19;;;;;;;19.55;14.25;;;6.30;99.90;;;;;;5068878;28;20343;-38